createdAt,value
2018-11-04T00:00:42.233Z,12.60
2018-11-04T00:01:42.276Z,12.80
2018-11-04T00:02:42.204Z,12.70
2018-11-04T00:03:42.201Z,12.50
2018-11-04T00:04:42.206Z,12.00
2018-11-04T00:05:42.172Z,12.00
2018-11-04T00:06:42.159Z,12.70
2018-11-04T00:07:42.149Z,12.00
2018-11-04T00:08:42.183Z,12.80
2018-11-04T00:09:42.136Z,11.90
2018-11-04T00:10:42.129Z,12.10
2018-11-04T00:11:42.117Z,12.20
2018-11-04T00:12:42.149Z,12.70
2018-11-04T00:13:42.091Z,13.00
2018-11-04T00:14:42.127Z,11.80
2018-11-04T00:15:42.135Z,12.90
2018-11-04T00:16:42.060Z,12.70
2018-11-04T00:17:42.074Z,11.90
2018-11-04T00:18:42.051Z,12.70
2018-11-04T00:19:42.034Z,12.30
2018-11-04T00:20:42.015Z,11.90
2018-11-04T00:21:42.028Z,12.40
2018-11-04T00:22:42.006Z,13.10
2018-11-04T00:23:41.996Z,12.90
2018-11-04T00:24:41.992Z,12.60
2018-11-04T00:25:41.963Z,12.60
2018-11-04T00:26:41.951Z,12.90
2018-11-04T00:27:41.943Z,12.10
2018-11-04T00:28:41.969Z,12.50
2018-11-04T00:29:41.955Z,12.10
2018-11-04T00:30:41.916Z,12.20
2018-11-04T00:31:41.908Z,12.10
2018-11-04T00:32:41.901Z,12.10
2018-11-04T00:33:41.959Z,12.00
2018-11-04T00:34:41.925Z,12.30
2018-11-04T00:35:41.878Z,12.20
2018-11-04T00:36:41.855Z,12.30
2018-11-04T00:37:41.837Z,11.80
2018-11-04T00:38:41.838Z,12.50
2018-11-04T00:39:41.822Z,13.20
2018-11-04T00:40:41.808Z,11.90
2018-11-04T00:41:41.802Z,12.50
2018-11-04T00:42:41.794Z,12.70
2018-11-04T00:43:41.844Z,12.30
2018-11-04T00:44:41.768Z,12.10
2018-11-04T00:45:41.758Z,12.40
2018-11-04T00:46:41.773Z,12.70
2018-11-04T00:47:41.729Z,13.10
2018-11-04T00:48:41.722Z,12.80
2018-11-04T00:49:41.742Z,13.90
2018-11-04T00:50:41.721Z,13.00
2018-11-04T00:51:41.735Z,13.70
2018-11-04T00:52:41.683Z,16.00
2018-11-04T00:53:41.677Z,14.70
2018-11-04T00:54:41.667Z,13.90
2018-11-04T00:55:41.655Z,14.40
2018-11-04T00:56:41.643Z,15.10
2018-11-04T00:57:41.653Z,14.80
2018-11-04T00:58:41.624Z,13.60
2018-11-04T00:59:41.605Z,13.40
2018-11-04T01:00:41.595Z,13.60
2018-11-04T01:01:43.131Z,14.40
2018-11-04T01:02:41.594Z,14.80
2018-11-04T01:03:41.603Z,15.30
2018-11-04T01:04:41.593Z,17.60
2018-11-04T01:05:41.546Z,17.10
2018-11-04T01:06:41.536Z,16.50
2018-11-04T01:07:41.531Z,17.20
2018-11-04T01:08:41.524Z,16.30
2018-11-04T01:09:41.503Z,16.70
2018-11-04T01:10:41.489Z,14.90
2018-11-04T01:11:41.492Z,16.00
2018-11-04T01:12:41.484Z,14.50
2018-11-04T01:13:41.492Z,15.00
2018-11-04T01:14:41.472Z,15.20
2018-11-04T01:15:41.450Z,16.00
2018-11-04T01:16:41.432Z,16.60
2018-11-04T01:17:41.421Z,16.80
2018-11-04T01:18:41.452Z,16.30
2018-11-04T01:19:41.396Z,15.60
2018-11-04T01:20:41.390Z,17.10
2018-11-04T01:21:41.383Z,16.00
2018-11-04T01:22:41.406Z,15.50
2018-11-04T01:23:41.361Z,17.30
2018-11-04T01:24:41.347Z,16.80
2018-11-04T01:25:41.358Z,17.20
2018-11-04T01:26:41.327Z,15.90
2018-11-04T01:27:41.358Z,16.40
2018-11-04T01:28:41.310Z,16.70
2018-11-04T01:29:41.315Z,17.70
2018-11-04T01:30:41.276Z,16.90
2018-11-04T01:31:41.273Z,15.30
2018-11-04T01:32:41.265Z,16.00
2018-11-04T01:33:41.273Z,17.30
2018-11-04T01:34:41.265Z,16.10
2018-11-04T01:35:41.247Z,14.80
2018-11-04T01:36:41.251Z,16.90
2018-11-04T01:37:41.221Z,17.30
2018-11-04T01:38:41.190Z,16.30
2018-11-04T01:39:41.199Z,15.60
2018-11-04T01:40:41.184Z,16.10
2018-11-04T01:41:41.172Z,15.10
2018-11-04T01:42:41.149Z,15.70
2018-11-04T01:43:41.139Z,17.40
2018-11-04T01:44:41.153Z,17.50
2018-11-04T01:45:41.122Z,15.50
2018-11-04T01:46:41.131Z,15.70
2018-11-04T01:47:41.102Z,15.70
2018-11-04T01:48:41.094Z,16.90
2018-11-04T01:49:41.075Z,16.10
2018-11-04T01:50:41.073Z,17.60
2018-11-04T01:51:41.054Z,17.00
2018-11-04T01:52:41.060Z,15.10
2018-11-04T01:53:41.036Z,15.50
2018-11-04T01:54:41.031Z,15.30
2018-11-04T01:55:41.012Z,16.60
2018-11-04T01:56:41.003Z,16.40
2018-11-04T01:57:41.005Z,17.80
2018-11-04T01:58:40.998Z,17.90
2018-11-04T01:59:40.974Z,17.10
2018-11-04T02:00:40.967Z,17.20
2018-11-04T02:01:40.955Z,16.70
2018-11-04T02:02:40.948Z,15.30
2018-11-04T02:03:40.921Z,16.70
2018-11-04T02:04:40.936Z,16.90
2018-11-04T02:05:40.908Z,16.00
2018-11-04T02:06:40.903Z,15.70
2018-11-04T02:07:40.894Z,16.30
2018-11-04T02:08:40.877Z,16.10
2018-11-04T02:09:40.863Z,16.20
2018-11-04T02:10:40.901Z,15.80
2018-11-04T02:11:40.862Z,15.70
2018-11-04T02:12:40.834Z,15.90
2018-11-04T02:13:40.847Z,15.60
2018-11-04T02:14:40.832Z,16.00
2018-11-04T02:15:40.802Z,16.30
2018-11-04T02:16:40.788Z,15.80
2018-11-04T02:17:40.787Z,15.80
2018-11-04T02:18:40.784Z,16.00
2018-11-04T02:19:40.775Z,17.00
2018-11-04T02:20:40.772Z,15.50
2018-11-04T02:21:40.767Z,15.80
2018-11-04T02:22:40.729Z,16.20
2018-11-04T02:23:40.738Z,15.50
2018-11-04T02:24:40.704Z,15.80
2018-11-04T02:25:40.728Z,16.00
2018-11-04T02:26:40.702Z,15.10
2018-11-04T02:27:40.678Z,16.50
2018-11-04T02:28:40.664Z,15.20
2018-11-04T02:29:40.670Z,15.60
2018-11-04T02:30:40.661Z,16.00
2018-11-04T02:31:40.658Z,16.30
2018-11-04T02:32:40.621Z,15.50
2018-11-04T02:33:40.627Z,17.60
2018-11-04T02:34:40.651Z,15.30
2018-11-04T02:35:40.637Z,14.90
2018-11-04T02:36:40.590Z,15.20
2018-11-04T02:37:40.594Z,15.30
2018-11-04T02:38:40.579Z,16.20
2018-11-04T02:39:40.552Z,16.40
2018-11-04T02:40:40.553Z,16.80
2018-11-04T02:41:40.534Z,16.40
2018-11-04T02:42:40.524Z,15.20
2018-11-04T02:43:40.516Z,15.20
2018-11-04T02:44:40.530Z,15.00
2018-11-04T02:45:40.488Z,16.30
2018-11-04T02:46:40.540Z,16.40
2018-11-04T02:47:40.465Z,15.30
2018-11-04T02:48:40.446Z,16.60
2018-11-04T02:49:40.505Z,16.50
2018-11-04T02:50:40.515Z,15.90
2018-11-04T02:51:40.508Z,15.70
2018-11-04T02:52:40.466Z,16.50
2018-11-04T02:53:40.398Z,16.10
2018-11-04T02:54:40.396Z,16.10
2018-11-04T02:55:40.377Z,16.50
2018-11-04T02:56:40.401Z,16.40
2018-11-04T02:57:40.356Z,17.20
2018-11-04T02:58:40.348Z,15.00
2018-11-04T02:59:40.341Z,14.60
2018-11-04T03:00:40.339Z,16.30
2018-11-04T03:01:40.772Z,15.00
2018-11-04T03:02:40.292Z,15.60
2018-11-04T03:03:40.292Z,15.00
2018-11-04T03:04:40.279Z,16.20
2018-11-04T03:05:40.294Z,16.70
2018-11-04T03:06:40.268Z,14.70
2018-11-04T03:07:40.280Z,15.40
2018-11-04T03:08:40.232Z,15.50
2018-11-04T03:09:40.256Z,16.60
2018-11-04T03:10:40.242Z,16.20
2018-11-04T03:11:40.195Z,16.10
2018-11-04T03:12:40.199Z,15.40
2018-11-04T03:13:40.205Z,16.20
2018-11-04T03:14:40.193Z,16.80
2018-11-04T03:15:40.159Z,14.20
2018-11-04T03:16:40.144Z,14.40
2018-11-04T03:17:40.168Z,15.60
2018-11-04T03:18:40.136Z,15.50
2018-11-04T03:19:40.149Z,15.60
2018-11-04T03:20:40.105Z,15.90
2018-11-04T03:21:40.093Z,15.40
2018-11-04T03:22:40.084Z,15.60
2018-11-04T03:23:40.094Z,14.70
2018-11-04T03:24:40.138Z,14.20
2018-11-04T03:25:40.107Z,15.50
2018-11-04T03:26:40.043Z,15.40
2018-11-04T03:27:40.043Z,16.30
2018-11-04T03:28:40.059Z,15.80
2018-11-04T03:29:40.093Z,16.00
2018-11-04T03:30:40.080Z,15.50
2018-11-04T03:31:39.999Z,15.20
2018-11-04T03:32:40.020Z,14.60
2018-11-04T03:33:39.982Z,16.20
2018-11-04T03:34:39.980Z,16.20
2018-11-04T03:35:39.947Z,15.00
2018-11-04T03:36:39.984Z,15.60
2018-11-04T03:37:39.924Z,14.30
2018-11-04T03:38:39.964Z,14.80
2018-11-04T03:39:39.905Z,14.90
2018-11-04T03:40:39.897Z,15.30
2018-11-04T03:41:39.883Z,15.10
2018-11-04T03:42:39.899Z,15.40
2018-11-04T03:43:39.858Z,14.60
2018-11-04T03:44:39.899Z,16.30
2018-11-04T03:45:39.847Z,14.10
2018-11-04T03:46:39.858Z,15.20
2018-11-04T03:47:39.826Z,15.80
2018-11-04T03:48:39.805Z,15.40
2018-11-04T03:49:39.856Z,14.20
2018-11-04T03:50:39.803Z,15.30
2018-11-04T03:51:39.792Z,15.60
2018-11-04T03:52:39.802Z,14.30
2018-11-04T03:53:39.763Z,15.70
2018-11-04T03:54:39.754Z,14.70
2018-11-04T03:55:39.734Z,15.00
2018-11-04T03:56:39.723Z,12.70
2018-11-04T03:57:39.723Z,14.80
2018-11-04T03:58:39.706Z,15.00
2018-11-04T03:59:39.700Z,14.20
2018-11-04T04:00:39.684Z,13.50
2018-11-04T04:01:39.669Z,14.20
2018-11-04T04:02:39.678Z,14.80
2018-11-04T04:03:39.677Z,14.30
2018-11-04T04:04:39.652Z,13.80
2018-11-04T04:05:39.641Z,13.00
2018-11-04T04:06:39.609Z,14.50
2018-11-04T04:07:39.613Z,13.70
2018-11-04T04:08:39.590Z,13.70
2018-11-04T04:09:39.625Z,13.40
2018-11-04T04:10:39.596Z,13.80
2018-11-04T04:11:39.568Z,13.90
2018-11-04T04:12:39.568Z,13.40
2018-11-04T04:13:39.539Z,13.70
2018-11-04T04:14:39.523Z,13.80
2018-11-04T04:15:39.531Z,14.30
2018-11-04T04:16:39.551Z,14.00
2018-11-04T04:17:39.508Z,13.80
2018-11-04T04:18:39.486Z,13.70
2018-11-04T04:19:39.491Z,13.80
2018-11-04T04:20:39.466Z,13.50
2018-11-04T04:21:39.454Z,13.90
2018-11-04T04:22:39.465Z,12.80
2018-11-04T04:23:39.434Z,12.60
2018-11-04T04:24:39.429Z,13.50
2018-11-04T04:25:39.414Z,13.00
2018-11-04T04:26:39.396Z,14.60
2018-11-04T04:27:39.393Z,13.60
2018-11-04T04:28:39.421Z,12.70
2018-11-04T04:29:39.379Z,14.00
2018-11-04T04:30:39.365Z,13.40
2018-11-04T04:31:39.364Z,13.60
2018-11-04T04:32:39.354Z,13.40
2018-11-04T04:33:39.326Z,13.50
2018-11-04T04:34:39.322Z,13.60
2018-11-04T04:35:39.336Z,13.00
2018-11-04T04:36:39.302Z,14.30
2018-11-04T04:37:39.303Z,13.60
2018-11-04T04:38:39.281Z,14.10
2018-11-04T04:39:39.259Z,13.70
2018-11-04T04:40:39.252Z,13.80
2018-11-04T04:41:39.239Z,13.70
2018-11-04T04:42:39.243Z,12.70
2018-11-04T04:43:39.226Z,14.00
2018-11-04T04:44:39.207Z,14.00
2018-11-04T04:45:39.227Z,13.90
2018-11-04T04:46:39.218Z,13.70
2018-11-04T04:47:39.181Z,13.90
2018-11-04T04:48:39.161Z,13.40
2018-11-04T04:49:39.153Z,13.10
2018-11-04T04:50:39.170Z,14.20
2018-11-04T04:51:39.179Z,13.90
2018-11-04T04:52:39.233Z,14.00
2018-11-04T04:53:39.754Z,13.20
2018-11-04T04:54:39.111Z,13.50
2018-11-04T04:55:39.161Z,13.30
2018-11-04T04:56:39.188Z,13.30
2018-11-04T04:57:39.127Z,14.20
2018-11-04T04:58:39.067Z,13.50
2018-11-04T04:59:39.041Z,13.80
2018-11-04T05:00:39.037Z,13.50
2018-11-04T05:01:39.071Z,13.00
2018-11-04T05:02:39.038Z,13.60
2018-11-04T05:03:39.030Z,13.30
2018-11-04T05:04:38.999Z,13.80
2018-11-04T05:05:38.981Z,14.10
2018-11-04T05:06:38.973Z,13.50
2018-11-04T05:07:38.973Z,12.80
2018-11-04T05:08:38.954Z,13.40
2018-11-04T05:09:38.954Z,13.50
2018-11-04T05:10:38.931Z,13.40
2018-11-04T05:11:38.933Z,13.70
2018-11-04T05:12:38.918Z,13.30
2018-11-04T05:13:38.897Z,13.60
2018-11-04T05:14:38.905Z,13.40
2018-11-04T05:15:38.922Z,13.90
2018-11-04T05:16:38.872Z,13.80
2018-11-04T05:17:38.874Z,13.90
2018-11-04T05:18:38.861Z,12.90
2018-11-04T05:19:38.844Z,14.00
2018-11-04T05:20:38.831Z,13.70
2018-11-04T05:21:38.811Z,14.20
2018-11-04T05:22:38.850Z,13.60
2018-11-04T05:23:38.800Z,14.30
2018-11-04T05:24:38.811Z,14.20
2018-11-04T05:25:38.791Z,13.50
2018-11-04T05:26:38.759Z,13.50
2018-11-04T05:27:38.750Z,13.40
2018-11-04T05:28:38.735Z,13.80
2018-11-04T05:29:38.729Z,13.60
2018-11-04T05:30:38.712Z,13.20
2018-11-04T05:31:38.702Z,13.80
2018-11-04T05:32:38.730Z,13.30
2018-11-04T05:33:38.681Z,13.40
2018-11-04T05:34:38.711Z,14.60
2018-11-04T05:35:38.672Z,14.00
2018-11-04T05:36:38.667Z,13.20
2018-11-04T05:37:38.662Z,13.20
2018-11-04T05:38:38.646Z,14.70
2018-11-04T05:39:38.625Z,13.80
2018-11-04T05:40:38.615Z,13.90
2018-11-04T05:41:38.597Z,14.20
2018-11-04T05:42:38.605Z,12.80
2018-11-04T05:43:38.589Z,14.00
2018-11-04T05:44:38.593Z,14.10
2018-11-04T05:45:38.556Z,13.70
2018-11-04T05:46:38.547Z,14.10
2018-11-04T05:47:38.553Z,14.00
2018-11-04T05:48:38.540Z,13.30
2018-11-04T05:49:38.553Z,14.00
2018-11-04T05:50:38.528Z,13.20
2018-11-04T05:51:38.485Z,13.10
2018-11-04T05:52:38.476Z,13.10
2018-11-04T05:53:38.498Z,13.70
2018-11-04T05:54:38.460Z,13.60
2018-11-04T05:55:38.453Z,13.60
2018-11-04T05:56:38.433Z,13.50
2018-11-04T05:57:38.429Z,14.00
2018-11-04T05:58:38.418Z,14.00
2018-11-04T05:59:38.408Z,13.50
2018-11-04T06:00:38.436Z,12.90
2018-11-04T06:01:38.381Z,14.40
2018-11-04T06:02:38.370Z,13.90
2018-11-04T06:03:38.362Z,13.90
2018-11-04T06:04:38.356Z,13.20
2018-11-04T06:05:38.346Z,13.20
2018-11-04T06:06:38.354Z,13.80
2018-11-04T06:07:38.328Z,13.50
2018-11-04T06:08:38.310Z,13.50
2018-11-04T06:09:38.297Z,13.90
2018-11-04T06:10:38.295Z,13.50
2018-11-04T06:11:38.297Z,13.90
2018-11-04T06:12:38.279Z,13.90
2018-11-04T06:13:38.253Z,14.30
2018-11-04T06:14:38.259Z,13.40
2018-11-04T06:15:38.233Z,13.10
2018-11-04T06:16:38.239Z,13.40
2018-11-04T06:17:38.211Z,13.60
2018-11-04T06:18:38.208Z,13.90
2018-11-04T06:19:38.197Z,13.60
2018-11-04T06:20:38.183Z,13.10
2018-11-04T06:21:38.176Z,13.60
2018-11-04T06:22:38.168Z,14.00
2018-11-04T06:23:38.148Z,13.70
2018-11-04T06:24:38.133Z,13.80
2018-11-04T06:25:38.125Z,13.80
2018-11-04T06:26:38.135Z,13.90
2018-11-04T06:27:38.101Z,13.40
2018-11-04T06:28:38.126Z,14.30
2018-11-04T06:29:38.087Z,14.20
2018-11-04T06:30:38.082Z,14.20
2018-11-04T06:31:38.073Z,14.10
2018-11-04T06:32:38.062Z,14.00
2018-11-04T06:33:38.040Z,14.20
2018-11-04T06:34:38.117Z,14.20
2018-11-04T06:35:38.031Z,14.10
2018-11-04T06:36:38.029Z,14.80
2018-11-04T06:37:37.998Z,13.90
2018-11-04T06:38:38.040Z,13.80
2018-11-04T06:39:37.978Z,14.70
2018-11-04T06:40:37.977Z,13.80
2018-11-04T06:41:37.951Z,13.50
2018-11-04T06:42:37.938Z,13.80
2018-11-04T06:43:37.939Z,13.00
2018-11-04T06:44:37.935Z,13.60
2018-11-04T06:45:37.919Z,14.20
2018-11-04T06:46:37.906Z,13.90
2018-11-04T06:47:37.988Z,14.40
2018-11-04T06:48:37.904Z,13.90
2018-11-04T06:49:37.868Z,14.00
2018-11-04T06:50:37.890Z,14.80
2018-11-04T06:51:37.860Z,14.20
2018-11-04T06:52:37.841Z,14.40
2018-11-04T06:53:37.841Z,13.70
2018-11-04T06:54:37.822Z,13.90
2018-11-04T06:55:37.821Z,13.90
2018-11-04T06:56:37.807Z,14.20
2018-11-04T06:57:37.788Z,14.70
2018-11-04T06:58:37.782Z,13.70
2018-11-04T06:59:37.762Z,15.30
2018-11-04T07:00:37.771Z,13.80
2018-11-04T07:01:37.749Z,14.00
2018-11-04T07:02:37.737Z,13.60
2018-11-04T07:03:37.734Z,13.40
2018-11-04T07:04:37.719Z,14.00
2018-11-04T07:05:37.704Z,14.10
2018-11-04T07:06:37.736Z,14.30
2018-11-04T07:07:37.676Z,14.10
2018-11-04T07:08:37.680Z,13.30
2018-11-04T07:09:37.713Z,14.40
2018-11-04T07:10:37.651Z,13.40
2018-11-04T07:11:37.648Z,13.70
2018-11-04T07:12:37.626Z,14.10
2018-11-04T07:13:37.618Z,14.10
2018-11-04T07:14:37.611Z,14.40
2018-11-04T07:15:37.596Z,13.40
2018-11-04T07:16:37.651Z,14.30
2018-11-04T07:17:37.571Z,14.30
2018-11-04T07:18:37.556Z,14.00
2018-11-04T07:19:37.559Z,13.70
2018-11-04T07:20:37.577Z,13.70
2018-11-04T07:21:37.537Z,13.90
2018-11-04T07:22:37.529Z,14.40
2018-11-04T07:23:37.509Z,14.00
2018-11-04T07:24:37.519Z,13.80
2018-11-04T07:25:37.527Z,13.80
2018-11-04T07:26:37.471Z,13.70
2018-11-04T07:27:37.464Z,13.60
2018-11-04T07:28:37.449Z,14.00
2018-11-04T07:29:37.486Z,13.70
2018-11-04T07:30:37.463Z,13.60
2018-11-04T07:31:37.418Z,14.20
2018-11-04T07:32:37.415Z,14.60
2018-11-04T07:33:37.426Z,14.10
2018-11-04T07:34:37.403Z,13.20
2018-11-04T07:35:37.393Z,13.80
2018-11-04T07:36:37.375Z,14.00
2018-11-04T07:37:37.352Z,13.90
2018-11-04T07:38:37.367Z,13.90
2018-11-04T07:39:37.351Z,14.30
2018-11-04T07:40:37.321Z,13.80
2018-11-04T07:41:37.319Z,14.40
2018-11-04T07:42:37.318Z,14.20
2018-11-04T07:43:37.306Z,14.10
2018-11-04T07:44:37.327Z,13.70
2018-11-04T07:45:37.276Z,13.70
2018-11-04T07:46:37.288Z,14.40
2018-11-04T07:47:37.254Z,14.00
2018-11-04T07:48:37.245Z,14.10
2018-11-04T07:49:37.232Z,14.20
2018-11-04T07:50:37.243Z,13.90
2018-11-04T07:51:37.328Z,15.10
2018-11-04T07:52:37.189Z,14.70
2018-11-04T07:53:37.190Z,13.90
2018-11-04T07:54:37.195Z,13.80
2018-11-04T07:55:37.171Z,13.50
2018-11-04T07:56:37.167Z,14.10
2018-11-04T07:57:37.138Z,14.20
2018-11-04T07:58:37.127Z,14.20
2018-11-04T07:59:37.145Z,15.00
2018-11-04T08:00:37.102Z,14.20
2018-11-04T08:01:37.102Z,14.50
2018-11-04T08:02:37.102Z,15.00
2018-11-04T08:03:37.075Z,14.10
2018-11-04T08:04:37.082Z,13.70
2018-11-04T08:05:37.087Z,14.30
2018-11-04T08:06:37.056Z,13.80
2018-11-04T08:07:37.057Z,13.80
2018-11-04T08:08:37.026Z,14.80
2018-11-04T08:09:37.022Z,14.50
2018-11-04T08:10:37.003Z,14.70
2018-11-04T08:11:36.998Z,13.70
2018-11-04T08:12:36.973Z,14.40
2018-11-04T08:13:37.056Z,14.00
2018-11-04T08:14:36.969Z,15.10
2018-11-04T08:15:36.998Z,14.50
2018-11-04T08:16:36.940Z,13.70
2018-11-04T08:17:36.931Z,13.50
2018-11-04T08:18:36.911Z,14.80
2018-11-04T08:19:36.905Z,14.20
2018-11-04T08:20:36.892Z,13.30
2018-11-04T08:21:36.884Z,13.50
2018-11-04T08:22:36.891Z,14.00
2018-11-04T08:23:36.857Z,14.30
2018-11-04T08:24:36.843Z,14.10
2018-11-04T08:25:36.841Z,14.60
2018-11-04T08:26:36.834Z,13.70
2018-11-04T08:27:36.921Z,14.00
2018-11-04T08:28:36.811Z,14.10
2018-11-04T08:29:36.801Z,14.50
2018-11-04T08:30:36.783Z,14.70
2018-11-04T08:31:36.773Z,14.70
2018-11-04T08:32:36.756Z,15.20
2018-11-04T08:33:36.754Z,14.70
2018-11-04T08:34:36.770Z,15.10
2018-11-04T08:35:36.726Z,14.70
2018-11-04T08:36:36.716Z,15.00
2018-11-04T08:37:36.723Z,14.30
2018-11-04T08:38:36.701Z,14.40
2018-11-04T08:39:36.746Z,15.00
2018-11-04T08:40:36.688Z,14.30
2018-11-04T08:41:36.698Z,14.90
2018-11-04T08:42:36.653Z,14.20
2018-11-04T08:43:36.649Z,15.00
2018-11-04T08:44:36.636Z,14.20
2018-11-04T08:45:36.634Z,14.50
2018-11-04T08:46:36.611Z,14.50
2018-11-04T08:47:36.680Z,14.30
2018-11-04T08:48:36.603Z,14.60
2018-11-04T08:49:36.589Z,14.20
2018-11-04T08:50:36.604Z,14.10
2018-11-04T08:51:36.573Z,14.40
2018-11-04T08:52:36.666Z,14.30
2018-11-04T08:53:36.534Z,14.00
2018-11-04T08:54:36.521Z,14.40
2018-11-04T08:55:36.525Z,14.10
2018-11-04T08:56:36.502Z,14.10
2018-11-04T08:57:36.520Z,14.70
2018-11-04T08:58:36.483Z,14.00
2018-11-04T08:59:36.475Z,14.40
2018-11-04T09:00:36.504Z,14.90
2018-11-04T09:01:36.443Z,14.20
2018-11-04T09:02:36.435Z,14.70
2018-11-04T09:03:36.437Z,14.40
2018-11-04T09:04:36.411Z,14.70
2018-11-04T09:05:36.416Z,14.30
2018-11-04T09:06:36.423Z,13.90
2018-11-04T09:07:36.433Z,14.60
2018-11-04T09:08:36.373Z,13.50
2018-11-04T09:09:36.386Z,14.40
2018-11-04T09:10:36.382Z,14.00
2018-11-04T09:11:36.376Z,14.30
2018-11-04T09:12:36.380Z,14.20
2018-11-04T09:13:36.336Z,14.30
2018-11-04T09:14:36.306Z,13.80
2018-11-04T09:15:36.293Z,13.90
2018-11-04T09:16:36.285Z,14.20
2018-11-04T09:17:36.297Z,14.10
2018-11-04T09:18:36.282Z,14.20
2018-11-04T09:19:36.257Z,14.30
2018-11-04T09:20:36.245Z,13.90
2018-11-04T09:21:36.254Z,14.70
2018-11-04T09:22:36.290Z,14.60
2018-11-04T09:23:36.294Z,14.20
2018-11-04T09:24:36.223Z,14.80
2018-11-04T09:25:36.186Z,14.20
2018-11-04T09:26:36.177Z,14.50
2018-11-04T09:27:36.185Z,14.00
2018-11-04T09:28:36.153Z,14.40
2018-11-04T09:29:36.149Z,14.60
2018-11-04T09:30:36.143Z,14.30
2018-11-04T09:31:36.125Z,14.10
2018-11-04T09:32:36.131Z,13.90
2018-11-04T09:33:36.127Z,13.90
2018-11-04T09:34:36.108Z,13.80
2018-11-04T09:35:36.276Z,13.80
2018-11-04T09:36:36.159Z,14.10
2018-11-04T09:37:36.077Z,13.90
2018-11-04T09:38:36.059Z,14.40
2018-11-04T09:39:36.046Z,14.30
2018-11-04T09:40:36.039Z,14.90
2018-11-04T09:41:36.021Z,15.00
2018-11-04T09:42:36.019Z,14.20
2018-11-04T09:43:35.999Z,14.60
2018-11-04T09:44:35.992Z,14.50
2018-11-04T09:45:35.981Z,15.10
2018-11-04T09:46:36.051Z,14.80
2018-11-04T09:47:35.972Z,14.60
2018-11-04T09:48:35.963Z,14.70
2018-11-04T09:49:35.937Z,14.60
2018-11-04T09:50:35.924Z,15.30
2018-11-04T09:51:35.914Z,14.40
2018-11-04T09:52:35.915Z,14.40
2018-11-04T09:53:35.917Z,14.50
2018-11-04T09:54:35.890Z,15.30
2018-11-04T09:55:35.898Z,14.20
2018-11-04T09:56:36.035Z,15.30
2018-11-04T09:57:35.880Z,14.90
2018-11-04T09:58:35.835Z,14.70
2018-11-04T09:59:35.841Z,14.20
2018-11-04T10:00:35.812Z,14.90
2018-11-04T10:01:35.906Z,15.30
2018-11-04T10:02:35.818Z,15.10
2018-11-04T10:03:35.786Z,15.20
2018-11-04T10:04:35.812Z,14.70
2018-11-04T10:05:35.764Z,14.70
2018-11-04T10:06:35.772Z,13.70
2018-11-04T10:07:35.740Z,14.90
2018-11-04T10:08:35.727Z,14.90
2018-11-04T10:09:35.749Z,14.50
2018-11-04T10:10:35.716Z,13.70
2018-11-04T10:11:35.705Z,14.20
2018-11-04T10:12:35.694Z,13.60
2018-11-04T10:13:35.678Z,14.00
2018-11-04T10:14:35.671Z,15.80
2018-11-04T10:15:35.655Z,14.80
2018-11-04T10:16:35.738Z,14.30
2018-11-04T10:17:35.664Z,14.30
2018-11-04T10:18:35.669Z,14.30
2018-11-04T10:19:35.829Z,14.40
2018-11-04T10:20:35.902Z,14.80
2018-11-04T10:21:35.644Z,14.30
2018-11-04T10:22:35.645Z,14.90
2018-11-04T10:23:35.575Z,14.50
2018-11-04T10:24:35.598Z,14.80
2018-11-04T10:25:35.563Z,14.70
2018-11-04T10:26:35.575Z,14.50
2018-11-04T10:27:35.607Z,14.50
2018-11-04T10:28:35.558Z,15.10
2018-11-04T10:29:35.572Z,14.50
2018-11-04T10:30:35.505Z,14.40
2018-11-04T10:31:35.478Z,14.80
2018-11-04T10:32:35.561Z,14.50
2018-11-04T10:33:35.468Z,14.50
2018-11-04T10:34:35.455Z,15.00
2018-11-04T10:35:35.480Z,14.20
2018-11-04T10:36:35.437Z,14.70
2018-11-04T10:37:35.433Z,14.80
2018-11-04T10:38:35.423Z,14.40
2018-11-04T10:39:35.394Z,14.50
2018-11-04T10:40:35.380Z,14.70
2018-11-04T10:41:35.388Z,14.50
2018-11-04T10:42:35.378Z,15.50
2018-11-04T10:43:35.348Z,14.80
2018-11-04T10:44:35.339Z,14.70
2018-11-04T10:45:35.343Z,14.80
2018-11-04T10:46:35.318Z,15.60
2018-11-04T10:47:35.309Z,15.20
2018-11-04T10:48:35.334Z,14.00
2018-11-04T10:49:35.443Z,14.30
2018-11-04T10:50:35.286Z,14.00
2018-11-04T10:51:35.293Z,14.00
2018-11-04T10:52:35.247Z,13.50
2018-11-04T10:53:35.246Z,14.70
2018-11-04T10:54:35.234Z,15.20
2018-11-04T10:55:35.261Z,14.50
2018-11-04T10:56:35.211Z,15.40
2018-11-04T10:57:35.201Z,15.00
2018-11-04T10:58:35.216Z,15.60
2018-11-04T10:59:35.185Z,15.40
2018-11-04T11:00:35.189Z,15.30
2018-11-04T11:01:35.147Z,15.50
2018-11-04T11:02:35.146Z,15.10
2018-11-04T11:03:35.155Z,14.70
2018-11-04T11:04:35.150Z,15.30
2018-11-04T11:05:35.147Z,14.60
2018-11-04T11:06:35.100Z,14.70
2018-11-04T11:07:35.091Z,15.10
2018-11-04T11:08:35.081Z,15.00
2018-11-04T11:09:35.067Z,15.20
2018-11-04T11:10:35.090Z,15.00
2018-11-04T11:11:35.150Z,15.40
2018-11-04T11:12:35.035Z,14.80
2018-11-04T11:13:35.034Z,15.00
2018-11-04T11:14:35.077Z,15.00
2018-11-04T11:15:35.035Z,14.70
2018-11-04T11:16:34.991Z,14.70
2018-11-04T11:17:34.985Z,14.10
2018-11-04T11:18:35.016Z,15.10
2018-11-04T11:19:34.975Z,14.60
2018-11-04T11:20:34.957Z,15.40
2018-11-04T11:21:34.936Z,14.70
2018-11-04T11:22:35.003Z,14.40
2018-11-04T11:23:34.911Z,14.80
2018-11-04T11:24:34.915Z,14.80
2018-11-04T11:25:34.901Z,15.20
2018-11-04T11:26:34.920Z,15.30
2018-11-04T11:27:34.887Z,15.30
2018-11-04T11:28:34.884Z,14.90
2018-11-04T11:29:34.863Z,15.30
2018-11-04T11:30:34.843Z,15.40
2018-11-04T11:31:34.836Z,15.00
2018-11-04T11:32:34.843Z,15.50
2018-11-04T11:33:34.818Z,15.20
2018-11-04T11:34:34.804Z,15.10
2018-11-04T11:35:34.801Z,15.20
2018-11-04T11:36:34.775Z,15.10
2018-11-04T11:37:34.870Z,14.70
2018-11-04T11:38:34.767Z,15.00
2018-11-04T11:39:34.751Z,14.80
2018-11-04T11:40:34.747Z,14.80
2018-11-04T11:41:34.732Z,14.90
2018-11-04T11:42:34.709Z,16.30
2018-11-04T11:43:34.702Z,15.10
2018-11-04T11:44:34.716Z,15.00
2018-11-04T11:45:34.737Z,14.30
2018-11-04T11:46:34.675Z,14.10
2018-11-04T11:47:34.663Z,14.60
2018-11-04T11:48:34.660Z,15.10
2018-11-04T11:49:34.646Z,15.50
2018-11-04T11:50:34.644Z,14.90
2018-11-04T11:51:34.644Z,14.20
2018-11-04T11:52:34.742Z,15.30
2018-11-04T11:53:35.022Z,15.00
2018-11-04T11:54:34.765Z,15.10
2018-11-04T11:55:34.616Z,15.00
2018-11-04T11:56:34.613Z,15.00
2018-11-04T11:57:34.605Z,14.80
2018-11-04T11:58:34.560Z,15.30
2018-11-04T11:59:34.533Z,14.90
2018-11-04T12:00:34.528Z,14.60
2018-11-04T12:01:34.505Z,15.40
2018-11-04T12:02:34.501Z,15.20
2018-11-04T12:03:34.490Z,14.80
2018-11-04T12:04:34.514Z,14.50
2018-11-04T12:05:34.464Z,14.00
2018-11-04T12:06:34.450Z,15.50
2018-11-04T12:07:34.439Z,15.30
2018-11-04T12:08:34.448Z,14.60
2018-11-04T12:09:34.432Z,14.30
2018-11-04T12:10:34.414Z,15.90
2018-11-04T12:11:34.403Z,14.30
2018-11-04T12:12:34.400Z,14.20
2018-11-04T12:13:34.380Z,15.00
2018-11-04T12:14:34.381Z,14.40
2018-11-04T12:15:34.362Z,14.00
2018-11-04T12:16:34.344Z,14.10
2018-11-04T12:17:34.413Z,14.70
2018-11-04T12:18:34.327Z,14.10
2018-11-04T12:19:34.327Z,14.10
2018-11-04T12:20:34.302Z,14.40
2018-11-04T12:21:34.296Z,14.30
2018-11-04T12:22:34.306Z,14.10
2018-11-04T12:23:34.280Z,14.70
2018-11-04T12:24:34.266Z,14.50
2018-11-04T12:25:34.272Z,14.70
2018-11-04T12:26:34.232Z,14.90
2018-11-04T12:27:34.277Z,14.70
2018-11-04T12:28:34.213Z,14.70
2018-11-04T12:29:34.205Z,14.80
2018-11-04T12:30:34.201Z,14.30
2018-11-04T12:31:34.198Z,15.00
2018-11-04T12:32:34.172Z,14.40
2018-11-04T12:33:34.159Z,13.70
2018-11-04T12:34:34.148Z,14.50
2018-11-04T12:35:34.157Z,14.00
2018-11-04T12:36:34.174Z,14.60
2018-11-04T12:37:34.139Z,14.80
2018-11-04T12:38:34.112Z,13.80
2018-11-04T12:39:34.115Z,14.60
2018-11-04T12:40:34.083Z,14.40
2018-11-04T12:41:34.095Z,14.60
2018-11-04T12:42:34.078Z,14.60
2018-11-04T12:43:34.075Z,14.70
2018-11-04T12:44:34.048Z,15.10
2018-11-04T12:45:34.044Z,14.60
2018-11-04T12:46:34.021Z,14.90
2018-11-04T12:47:34.012Z,14.80
2018-11-04T12:48:34.002Z,14.80
2018-11-04T12:49:34.004Z,14.80
2018-11-04T12:50:33.993Z,13.90
2018-11-04T12:51:33.961Z,14.50
2018-11-04T12:52:33.971Z,14.10